Time;durP1;ratioP1;P1;durP2;ratioP2;P2;SDS_P1;SDS_P2;PMS_P1;PMS_P2;Temp;Humidity;BMP_temperature;BMP_pressure;BME280_temperature;BME280_humidity;BME280_pressure;Samples;Min_cycle;Max_cycle;Signal;HPM_P1;HPM_P2
2022/01/13 00:00:40;;;;;;;19.37;12.77;;;;;;;0.02;69.06;101459.38;5095478;28;20169;-80
2022/01/13 00:03:07;;;;;;;16.97;11.17;;;;;;;0.05;68.95;101453.88;5101004;22;20221;-80
2022/01/13 00:06:28;;;;;;;17.13;12.13;;;;;;;0.12;68.50;101465.69;5093777;28;20188;-80
2022/01/13 00:09:24;;;;;;;18.13;12.20;;;;;;;0.17;68.08;101465.34;5107932;22;20229;-80
2022/01/13 00:11:53;;;;;;;18.67;12.33;;;;;;;0.15;68.43;101478.63;5117074;22;20216;-80
2022/01/13 00:17:32;;;;;;;17.07;11.40;;;;;;;-0.12;68.57;101455.06;5068022;22;20227;-80
2022/01/13 00:23:47;;;;;;;17.77;11.83;;;;;;;0.05;67.95;101469.69;5095135;28;20284;-80
2022/01/13 00:26:19;;;;;;;17.13;11.93;;;;;;;-0.10;68.56;101455.81;5118337;22;20250;-79
2022/01/13 00:29:43;;;;;;;16.70;11.90;;;;;;;-0.34;69.41;101459.28;5101658;23;20235;-80
2022/01/13 00:32:30;;;;;;;17.60;11.73;;;;;;;-0.38;69.74;101452.56;5122560;22;20224;-79
2022/01/13 00:35:05;;;;;;;16.17;12.10;;;;;;;-0.43;70.09;101466.03;5094220;22;20228;-79
2022/01/13 00:37:56;;;;;;;16.80;11.77;;;;;;;-0.49;70.24;101461.19;5080548;23;20204;-80
2022/01/13 00:40:24;;;;;;;17.67;11.53;;;;;;;-0.34;69.24;101468.03;5114173;22;20236;-80
2022/01/13 00:42:57;;;;;;;17.00;10.90;;;;;;;-0.29;69.17;101451.91;5109859;23;20660;-80
2022/01/13 00:45:32;;;;;;;15.90;11.10;;;;;;;-0.18;68.92;101454.63;5164969;22;20255;-80
2022/01/13 00:48:29;;;;;;;15.80;10.73;;;;;;;-0.34;69.27;101456.66;5099571;22;20267;-80
2022/01/13 00:51:13;;;;;;;15.00;10.97;;;;;;;-0.49;69.56;101435.69;5105728;23;20643;-79
2022/01/13 00:54:03;;;;;;;16.20;10.87;;;;;;;-0.52;70.23;101453.50;5113849;28;20218;-80
2022/01/13 00:57:18;;;;;;;18.13;11.43;;;;;;;-0.58;70.23;101449.50;5183155;22;20232;-80
2022/01/13 00:59:50;;;;;;;15.00;10.87;;;;;;;-0.35;69.60;101455.81;5093620;28;20221;-79
2022/01/13 01:02:29;;;;;;;16.23;11.37;;;;;;;-0.43;69.38;101452.88;5101319;23;20236;-81
2022/01/13 01:05:06;;;;;;;15.83;11.27;;;;;;;-0.53;69.56;101455.28;5114389;22;20192;-79
2022/01/13 01:08:08;;;;;;;17.50;11.53;;;;;;;-0.44;69.72;101453.81;5101578;23;20246;-79
2022/01/13 01:11:10;;;;;;;16.30;10.97;;;;;;;-0.57;70.42;101474.88;5099695;22;20221;-79
2022/01/13 01:13:50;;;;;;;16.37;11.20;;;;;;;-0.57;69.88;101472.25;5076217;23;20227;-79
2022/01/13 01:16:33;;;;;;;14.13;10.13;;;;;;;-0.50;70.19;101470.00;5096745;22;20293;-79
2022/01/13 01:19:29;;;;;;;13.27;10.10;;;;;;;-0.43;69.42;101470.47;5029170;22;20228;-80
2022/01/13 01:27:59;;;;;;;16.40;11.43;;;;;;;-0.44;69.51;101466.97;5104054;22;20231;-80
2022/01/13 01:30:42;;;;;;;16.17;11.60;;;;;;;-0.56;69.45;101452.03;5111613;22;20244;-80
2022/01/13 01:33:18;;;;;;;18.17;11.47;;;;;;;-0.49;68.86;101455.91;5074598;28;20181;-80
2022/01/13 01:35:45;;;;;;;18.50;11.70;;;;;;;-0.41;68.82;101450.97;5084578;28;20209;-80
2022/01/13 01:38:13;;;;;;;15.83;11.37;;;;;;;-0.40;68.37;101447.38;5050732;28;20293;-80
2022/01/13 01:40:44;;;;;;;16.57;11.90;;;;;;;-0.38;68.61;101465.72;5081894;22;20231;-80
2022/01/13 01:43:14;;;;;;;15.87;11.13;;;;;;;-0.36;68.47;101461.16;5090041;28;20236;-80
2022/01/13 01:45:48;;;;;;;16.70;11.57;;;;;;;-0.32;67.86;101458.22;5084094;28;20239;-81
2022/01/13 01:48:35;;;;;;;18.13;11.83;;;;;;;-0.30;68.40;101471.28;5067387;28;20225;-80
2022/01/13 01:51:07;;;;;;;16.87;11.70;;;;;;;-0.25;67.45;101453.38;5066525;28;20255;-81
2022/01/13 01:53:43;;;;;;;15.67;11.57;;;;;;;-0.17;67.53;101449.25;5087244;28;20228;-80
2022/01/13 01:56:13;;;;;;;15.77;11.30;;;;;;;-0.12;67.51;101438.41;5104223;28;20256;-80
2022/01/13 01:58:41;;;;;;;16.10;11.07;;;;;;;-0.07;66.83;101447.69;5104603;28;20284;-80
2022/01/13 02:01:09;;;;;;;17.07;11.20;;;;;;;-0.14;67.03;101433.22;5087426;28;20244;-80
2022/01/13 02:03:44;;;;;;;15.53;10.40;;;;;;;-0.02;66.92;101428.91;5071300;28;20318;-80
2022/01/13 02:06:11;;;;;;;16.73;11.27;;;;;;;0.14;65.91;101440.03;5087766;28;20651;-81
2022/01/13 02:08:43;;;;;;;14.57;10.23;;;;;;;0.20;65.39;101436.13;5105552;28;20204;-80
2022/01/13 02:11:15;;;;;;;12.93;9.77;;;;;;;0.06;64.81;101421.28;5087654;22;20228;-80
2022/01/13 02:13:50;;;;;;;12.87;10.00;;;;;;;0.21;64.42;101422.84;5049136;28;20240;-80
2022/01/13 02:16:53;;;;;;;13.53;9.40;;;;;;;0.19;63.89;101418.63;5049494;28;20225;-78
2022/01/13 02:19:16;;;;;;;14.83;8.90;;;;;;;0.26;63.63;101419.88;5030100;28;20238;-79
2022/01/13 02:21:43;;;;;;;13.93;9.27;;;;;;;0.15;63.54;101399.56;5050160;28;20226;-80
2022/01/13 02:24:13;;;;;;;13.10;8.93;;;;;;;0.30;62.72;101408.16;5091038;28;20323;-80
2022/01/13 02:26:47;;;;;;;13.83;9.17;;;;;;;0.35;62.53;101406.03;5070610;28;20220;-80
2022/01/13 02:29:15;;;;;;;13.77;8.93;;;;;;;0.39;62.18;101407.50;5069776;28;20288;-80
2022/01/13 02:31:57;;;;;;;13.10;8.90;;;;;;;0.54;61.78;101413.44;5087351;28;20701;-79
2022/01/13 02:34:27;;;;;;;11.40;8.43;;;;;;;0.56;60.34;101417.66;5110493;22;20240;-79
2022/01/13 02:37:05;;;;;;;12.87;8.77;;;;;;;0.68;59.87;101400.94;5055763;28;20220;-79
2022/01/13 02:39:37;;;;;;;10.03;7.23;;;;;;;0.65;59.77;101424.06;5100656;22;20227;-79
2022/01/13 02:42:12;;;;;;;10.77;7.90;;;;;;;0.84;59.02;101422.56;5079947;22;20240;-79
2022/01/13 02:44:50;;;;;;;11.13;7.83;;;;;;;0.80;59.07;101430.84;5076437;28;20252;-79
2022/01/13 02:47:47;;;;;;;11.93;8.20;;;;;;;0.66;59.43;101425.72;5092939;28;20215;-79
2022/01/13 02:50:16;;;;;;;11.27;7.90;;;;;;;0.66;58.93;101426.56;5053280;28;20224;-79
2022/01/13 02:52:48;;;;;;;10.73;7.67;;;;;;;0.75;58.08;101415.34;5088148;28;20233;-79
2022/01/13 02:55:20;;;;;;;9.40;7.63;;;;;;;0.89;57.36;101422.22;5083126;28;20255;-79
2022/01/13 02:57:48;;;;;;;12.43;8.80;;;;;;;0.87;57.85;101419.72;5076616;23;20244;-79
2022/01/13 03:00:19;;;;;;;11.23;8.10;;;;;;;0.87;57.47;101401.25;5069806;28;20224;-79
2022/01/13 03:02:48;;;;;;;12.13;8.60;;;;;;;0.84;57.42;101403.28;5093678;23;20235;-79
2022/01/13 03:05:17;;;;;;;12.43;8.77;;;;;;;0.82;57.75;101421.03;5114498;22;21302;-79
2022/01/13 03:07:48;;;;;;;12.50;8.37;;;;;;;0.77;57.58;101426.63;5052191;28;20295;-79
2022/01/13 03:10:21;;;;;;;11.20;8.33;;;;;;;0.81;57.83;101440.44;5049234;28;20288;-79
2022/01/13 03:12:48;;;;;;;12.20;8.30;;;;;;;0.99;56.62;101435.59;5091816;22;20255;-79
2022/01/13 03:15:37;;;;;;;10.53;7.97;;;;;;;0.84;56.21;101441.03;5100578;23;20228;-79
2022/01/13 03:18:26;;;;;;;10.47;7.70;;;;;;;0.85;55.61;101461.22;5099029;28;20208;-79
2022/01/13 03:21:10;;;;;;;11.60;7.17;;;;;;;0.98;54.82;101476.16;5116904;28;20185;-79
2022/01/13 03:24:17;;;;;;;11.10;8.50;;;;;;;0.99;54.92;101457.53;5115132;28;20224;-79
2022/01/13 03:26:53;;;;;;;13.03;8.43;;;;;;;1.00;54.57;101435.47;5116718;28;20224;-79
2022/01/13 03:29:41;;;;;;;11.40;8.00;;;;;;;0.87;55.68;101422.38;5117338;28;20187;-79
2022/01/13 03:32:28;;;;;;;12.47;9.03;;;;;;;0.79;56.90;101437.91;5097042;28;20224;-79
2022/01/13 03:35:17;;;;;;;11.33;8.50;;;;;;;0.87;56.66;101432.06;5116868;28;20275;-79
2022/01/13 03:38:24;;;;;;;12.00;8.33;;;;;;;0.78;57.35;101438.03;5116308;28;20216;-79
2022/01/13 03:41:08;;;;;;;12.17;8.50;;;;;;;0.74;56.84;101442.72;5116909;28;20212;-79
2022/01/13 03:43:37;;;;;;;13.50;9.07;;;;;;;0.67;57.43;101430.91;5116882;28;20250;-79
2022/01/13 03:46:14;;;;;;;12.47;9.40;;;;;;;0.60;57.41;101402.47;5117077;28;20276;-79
2022/01/13 03:48:48;;;;;;;12.70;9.30;;;;;;;0.49;58.40;101374.22;5116258;28;20176;-79
2022/01/13 03:51:21;;;;;;;14.37;9.70;;;;;;;0.60;58.35;101403.31;5116903;28;20232;-79
2022/01/13 03:54:19;;;;;;;13.07;9.50;;;;;;;0.58;58.09;101417.53;5115687;28;20224;-79
2022/01/13 03:57:46;;;;;;;14.53;9.77;;;;;;;0.56;58.77;101440.56;5114949;28;20230;-79
2022/01/13 04:00:52;;;;;;;13.70;9.50;;;;;;;0.61;57.85;101438.41;5081135;28;20220;-79
2022/01/13 04:03:37;;;;;;;13.97;9.40;;;;;;;0.71;57.73;101447.34;5114980;28;20192;-79
2022/01/13 04:06:22;;;;;;;14.03;9.57;;;;;;;0.73;57.75;101448.09;5113285;28;20220;-79
2022/01/13 04:08:56;;;;;;;13.37;9.70;;;;;;;0.60;58.84;101455.22;5163833;22;20197;-79
2022/01/13 04:11:29;;;;;;;13.40;9.27;;;;;;;0.56;59.18;101448.47;5051175;23;20233;-79
2022/01/13 04:14:06;;;;;;;13.77;10.30;;;;;;;0.62;58.73;101459.41;5143245;22;20265;-79
2022/01/13 04:16:36;;;;;;;15.00;10.20;;;;;;;0.54;59.54;101467.03;5100654;23;20231;-79
2022/01/13 04:19:08;;;;;;;14.00;10.10;;;;;;;0.63;59.23;101476.09;5106542;22;20231;-79
2022/01/13 04:21:59;;;;;;;16.40;10.37;;;;;;;0.61;60.00;101465.63;5092291;23;20228;-79
2022/01/13 04:24:57;;;;;;;13.40;9.60;;;;;;;0.60;59.88;101448.16;5110594;22;20232;-79
2022/01/13 04:27:36;;;;;;;14.90;9.97;;;;;;;0.80;59.50;101452.78;5081078;28;20200;-79
2022/01/13 04:30:48;;;;;;;14.57;10.13;;;;;;;0.79;60.19;101448.47;5035678;22;20225;-79
2022/01/13 04:33:57;;;;;;;13.87;9.97;;;;;;;0.65;60.90;101447.81;5074265;28;20189;-79
2022/01/13 04:36:51;;;;;;;14.17;10.07;;;;;;;0.81;60.62;101459.75;5276725;22;20224;-79
2022/01/13 04:39:19;;;;;;;15.93;10.00;;;;;;;0.89;60.59;101469.72;5116200;28;20235;-79
2022/01/13 04:44:43;;;;;;;15.87;9.67;;;;;;;0.99;61.07;101470.75;5119210;22;20603;-80
2022/01/13 04:47:25;;;;;;;14.97;10.10;;;;;;;0.98;61.73;101471.69;5110192;22;20244;-81
2022/01/13 04:49:59;;;;;;;16.13;10.60;;;;;;;1.07;61.80;101478.13;5103526;22;20260;-80
2022/01/13 04:52:35;;;;;;;18.40;10.63;;;;;;;1.06;62.01;101465.88;5059292;23;20227;-81
2022/01/13 04:55:21;;;;;;;17.13;10.97;;;;;;;0.95;62.19;101485.13;5106795;23;20304;-80
2022/01/13 04:57:55;;;;;;;19.07;11.67;;;;;;;1.00;62.63;101493.56;5087099;23;20318;-80
2022/01/13 05:00:28;;;;;;;19.03;13.03;;;;;;;1.02;62.92;101510.13;5080264;23;20232;-81
2022/01/13 05:03:35;;;;;;;18.77;13.23;;;;;;;0.98;62.76;101523.66;5090316;28;20228;-80
2022/01/13 05:06:23;;;;;;;19.33;12.17;;;;;;;1.03;63.07;101524.16;5089523;28;20185;-80
2022/01/13 05:09:27;;;;;;;21.87;12.50;;;;;;;0.94;64.07;101522.19;5088914;28;20219;-80
2022/01/13 05:12:17;;;;;;;18.47;12.77;;;;;;;0.93;63.37;101515.25;5028031;28;20229;-80
2022/01/13 05:15:32;;;;;;;20.50;13.10;;;;;;;0.90;63.93;101518.94;5078834;23;20292;-80
2022/01/13 05:21:05;;;;;;;18.93;12.87;;;;;;;0.76;63.93;101493.53;5093630;22;20276;-81
2022/01/13 05:23:47;;;;;;;16.83;11.97;;;;;;;0.78;63.55;101493.44;5058883;28;20213;-81
2022/01/13 05:26:18;;;;;;;17.17;12.30;;;;;;;0.62;64.63;101487.59;5068634;22;20275;-80
2022/01/13 05:28:48;;;;;;;18.93;13.50;;;;;;;0.65;64.87;101511.13;5080424;23;20292;-81
2022/01/13 05:31:27;;;;;;;17.13;12.27;;;;;;;0.76;63.40;101504.09;5073793;28;20242;-81
2022/01/13 05:34:02;;;;;;;18.47;12.07;;;;;;;0.68;63.79;101492.41;5121387;22;20303;-80
2022/01/13 05:37:05;;;;;;;20.30;13.40;;;;;;;0.63;63.94;101503.31;5088748;28;20181;-81
2022/01/13 05:39:46;;;;;;;18.73;13.17;;;;;;;0.61;64.71;101492.00;5110199;23;20235;-81
2022/01/13 05:42:17;;;;;;;17.83;12.40;;;;;;;0.62;64.53;101500.78;5093158;23;20239;-81
2022/01/13 05:45:13;;;;;;;19.20;12.90;;;;;;;0.55;64.21;101497.75;5091792;22;20289;-81
2022/01/13 05:48:04;;;;;;;20.07;13.37;;;;;;;0.42;65.04;101489.03;5092459;28;20220;-80
2022/01/13 05:50:34;;;;;;;19.97;13.47;;;;;;;0.23;65.39;101486.00;5128576;22;20236;-81
2022/01/13 05:53:24;;;;;;;21.80;15.00;;;;;;;0.30;65.34;101503.91;5079234;22;20225;-80
2022/01/13 05:56:00;;;;;;;19.03;13.37;;;;;;;0.33;65.36;101508.13;5065485;28;20229;-81
2022/01/13 05:58:32;;;;;;;22.17;13.43;;;;;;;0.24;65.81;101511.41;5075704;28;20232;-81
2022/01/13 06:01:00;;;;;;;21.73;14.07;;;;;;;0.12;65.68;101497.31;5075755;28;20251;-81
2022/01/13 06:03:54;;;;;;;20.47;13.60;;;;;;;0.06;66.60;101508.25;5075730;28;20204;-81
2022/01/13 06:06:55;;;;;;;22.13;14.57;;;;;;;0.12;66.78;101499.09;5055976;28;20230;-81
2022/01/13 06:09:32;;;;;;;20.37;13.97;;;;;;;0.19;66.12;101493.28;5055146;28;20237;-81
2022/01/13 06:12:04;;;;;;;20.90;14.00;;;;;;;0.13;66.25;101493.72;5054335;28;20277;-81
2022/01/13 06:15:01;;;;;;;19.50;14.40;;;;;;;0.04;67.08;101507.56;5065349;28;20225;-81
2022/01/13 06:17:41;;;;;;;20.57;13.43;;;;;;;0.14;66.41;101503.28;5074487;28;20232;-81
2022/01/13 06:20:22;;;;;;;18.93;12.80;;;;;;;0.24;66.84;101504.34;5191329;22;20200;-81
2022/01/13 06:22:54;;;;;;;19.53;13.87;;;;;;;0.13;67.62;101509.53;5186099;22;20229;-80
2022/01/13 06:25:40;;;;;;;18.67;12.67;;;;;;;0.05;67.44;101503.94;5063932;22;20294;-81
2022/01/13 06:28:30;;;;;;;20.17;12.40;;;;;;;0.11;67.94;101505.31;5055377;22;20233;-81
2022/01/13 06:31:06;;;;;;;20.40;13.93;;;;;;;0.14;67.76;101513.03;5066022;22;20234;-80
2022/01/13 06:33:41;;;;;;;19.83;13.10;;;;;;;0.15;67.75;101514.69;5054521;28;20187;-81
2022/01/13 06:36:19;;;;;;;20.37;13.67;;;;;;;0.22;67.92;101529.13;5074986;22;20217;-81
2022/01/13 06:39:29;;;;;;;20.47;12.87;;;;;;;0.18;68.47;101527.66;5069557;22;20221;-80
2022/01/13 06:42:32;;;;;;;17.77;13.17;;;;;;;0.12;67.85;101528.94;5072973;22;20225;-80
2022/01/13 06:45:13;;;;;;;20.17;13.53;;;;;;;0.10;68.65;101530.81;5049193;28;20198;-80
2022/01/13 06:47:45;;;;;;;18.93;12.87;;;;;;;0.07;68.91;101531.03;5045506;28;20563;-81
2022/01/13 06:50:41;;;;;;;19.33;12.63;;;;;;;0.05;69.09;101534.75;5043891;28;20289;-81
2022/01/13 06:53:28;;;;;;;18.77;13.23;;;;;;;0.09;69.84;101525.69;5055904;22;20240;-80
2022/01/13 06:56:05;;;;;;;20.00;13.37;;;;;;;0.04;69.61;101527.78;5043096;28;20213;-81
2022/01/13 06:58:49;;;;;;;21.00;13.17;;;;;;;-0.07;70.39;101518.81;5068377;28;20252;-80
2022/01/13 07:01:30;;;;;;;20.57;13.60;;;;;;;-0.02;70.34;101526.41;5067038;28;20165;-81
2022/01/13 07:03:59;;;;;;;21.87;14.73;;;;;;;-0.13;70.34;101531.56;5080393;23;20213;-81
2022/01/13 07:06:42;;;;;;;22.93;16.30;;;;;;;-0.20;70.74;101538.22;5072167;23;20221;-81
2022/01/13 07:09:12;;;;;;;22.17;14.47;;;;;;;-0.19;71.07;101532.84;5042725;23;20234;-81
2022/01/13 07:12:13;;;;;;;22.50;15.03;;;;;;;-0.23;70.93;101536.63;5052405;22;20285;-80
2022/01/13 07:15:23;;;;;;;25.60;16.30;;;;;;;-0.28;71.13;101528.19;5067657;28;20225;-81
2022/01/13 07:18:18;;;;;;;22.73;15.30;;;;;;;-0.21;70.52;101531.25;5102123;22;20312;-80
2022/01/13 07:20:50;;;;;;;22.80;14.93;;;;;;;-0.24;70.48;101520.94;5071495;28;20218;-81
2022/01/13 07:23:19;;;;;;;23.40;14.57;;;;;;;-0.06;70.49;101528.44;5079396;23;20245;-81
2022/01/13 07:25:55;;;;;;;19.83;13.93;;;;;;;-0.07;70.33;101545.19;5077014;22;20251;-80
2022/01/13 07:28:23;;;;;;;26.20;16.30;;;;;;;-0.05;70.12;101543.25;5032689;23;20303;-80
2022/01/13 07:30:56;;;;;;;28.27;18.00;;;;;;;0.04;69.78;101541.81;5076455;23;20253;-80
2022/01/13 07:33:44;;;;;;;21.30;14.60;;;;;;;0.16;69.12;101543.59;5071118;23;20264;-80
2022/01/13 07:36:31;;;;;;;23.63;14.63;;;;;;;0.11;69.10;101527.25;5080854;23;20832;-80
2022/01/13 07:40:03;;;;;;;24.07;16.40;;;;;;;0.09;69.12;101517.78;5069073;23;20220;-81
2022/01/13 07:42:41;;;;;;;23.17;15.00;;;;;;;0.09;69.71;101521.25;5042163;28;20161;-81
2022/01/13 07:45:18;;;;;;;23.33;14.97;;;;;;;0.25;68.61;101532.41;5082770;23;20237;-81
2022/01/13 07:47:59;;;;;;;22.17;14.70;;;;;;;0.11;69.06;101516.69;5117234;23;20252;-81
2022/01/13 07:51:00;;;;;;;23.43;14.23;;;;;;;0.14;69.65;101527.03;5047261;23;20252;-80
2022/01/13 07:54:10;;;;;;;25.00;16.70;;;;;;;0.25;68.98;101537.66;5182005;23;20205;-82
2022/01/13 07:56:49;;;;;;;23.77;16.47;;;;;;;0.19;68.68;101534.59;5070879;23;20233;-80
2022/01/13 07:59:40;;;;;;;22.20;15.77;;;;;;;0.20;69.19;101528.38;5072557;23;20272;-81
2022/01/13 08:02:58;;;;;;;29.43;19.43;;;;;;;0.37;69.17;101534.16;5063059;23;20239;-80
2022/01/13 08:06:37;;;;;;;26.43;18.33;;;;;;;0.36;69.03;101540.41;5026966;22;20227;-81
2022/01/13 08:09:47;;;;;;;23.67;15.90;;;;;;;0.33;69.11;101545.03;5066199;22;20229;-80
2022/01/13 08:12:15;;;;;;;26.87;19.17;;;;;;;0.24;68.55;101528.06;5252128;22;20257;-81
2022/01/13 08:15:12;;;;;;;25.23;17.90;;;;;;;0.27;69.65;101537.56;5090088;22;20278;-80
2022/01/13 08:20:46;;;;;;;22.90;15.90;;;;;;;0.48;68.33;101543.97;5051882;28;20240;-81
2022/01/13 08:23:56;;;;;;;23.57;16.50;;;;;;;0.37;67.98;101515.69;5095287;23;20631;-80
2022/01/13 08:27:12;;;;;;;28.00;19.30;;;;;;;0.44;66.86;101521.41;5098116;23;20243;-81
2022/01/13 08:30:29;;;;;;;25.27;16.30;;;;;;;0.30;67.11;101517.09;5092168;28;20229;-80
2022/01/13 08:33:22;;;;;;;21.10;15.27;;;;;;;0.37;67.32;101528.06;5093125;28;20192;-80
2022/01/13 08:36:11;;;;;;;25.30;16.60;;;;;;;0.16;67.79;101530.41;5068816;28;20213;-80
2022/01/13 08:38:55;;;;;;;26.03;19.23;;;;;;;0.20;67.46;101534.50;5094744;28;20289;-80
2022/01/13 08:41:26;;;;;;;24.30;17.10;;;;;;;0.37;67.22;101535.97;5048236;28;20222;-81
2022/01/13 08:44:26;;;;;;;21.30;15.47;;;;;;;0.33;67.44;101531.84;5034001;28;20214;-80
2022/01/13 08:47:19;;;;;;;24.70;15.60;;;;;;;0.29;67.55;101535.66;5066582;22;20245;-80
2022/01/13 08:50:17;;;;;;;24.60;15.50;;;;;;;0.43;67.61;101533.75;5073147;28;20178;-80
2022/01/13 08:52:48;;;;;;;24.30;15.53;;;;;;;0.22;68.12;101526.50;5102878;23;20231;-80
2022/01/13 08:55:17;;;;;;;24.43;16.13;;;;;;;0.23;67.51;101515.88;5080865;22;20236;-80
2022/01/13 08:57:59;;;;;;;22.77;16.20;;;;;;;0.38;67.65;101545.56;5077405;23;20293;-80
2022/01/13 09:00:52;;;;;;;21.57;14.77;;;;;;;0.29;67.74;101547.03;5076648;22;20233;-80
2022/01/13 09:03:20;;;;;;;22.30;16.13;;;;;;;0.41;67.67;101537.44;5064076;23;20237;-80
2022/01/13 09:05:59;;;;;;;20.93;14.97;;;;;;;0.40;67.36;101530.47;5021111;28;20283;-80
2022/01/13 09:08:51;;;;;;;22.67;15.43;;;;;;;0.57;67.57;101550.38;5081280;23;20233;-80
2022/01/13 09:11:38;;;;;;;24.43;15.37;;;;;;;0.83;66.52;101544.94;5051853;28;20229;-80
2022/01/13 09:14:28;;;;;;;20.37;14.03;;;;;;;0.89;65.96;101536.56;5053802;28;20201;-81
2022/01/13 09:17:39;;;;;;;20.10;14.33;;;;;;;1.05;65.45;101552.13;5053320;28;20214;-81
2022/01/13 09:20:17;;;;;;;20.83;14.03;;;;;;;1.03;64.50;101548.75;5145897;23;20217;-80
2022/01/13 09:22:47;;;;;;;21.73;14.20;;;;;;;1.30;64.54;101549.38;5050943;23;20233;-81
2022/01/13 09:25:19;;;;;;;23.70;13.73;;;;;;;1.43;64.08;101544.03;5069730;28;20237;-81
2022/01/13 09:28:18;;;;;;;20.57;13.37;;;;;;;1.45;63.62;101520.97;5078509;22;20225;-81
2022/01/13 09:30:45;;;;;;;20.57;14.00;;;;;;;1.66;63.48;101534.38;5080155;23;20236;-81
2022/01/13 09:33:29;;;;;;;21.27;14.33;;;;;;;1.69;63.25;101532.31;5074248;28;20158;-81
2022/01/13 09:36:00;;;;;;;18.63;13.77;;;;;;;1.93;64.12;101529.59;5082356;22;20235;-78
2022/01/13 09:38:28;;;;;;;17.63;12.63;;;;;;;2.09;63.76;101526.63;5061306;23;20290;-78
2022/01/13 09:41:13;;;;;;;18.97;13.37;;;;;;;2.26;63.64;101528.78;5030693;23;20244;-78
2022/01/13 09:43:45;;;;;;;18.27;12.93;;;;;;;2.40;62.46;101506.53;5039049;28;20209;-78
2022/01/13 09:46:18;;;;;;;18.67;12.53;;;;;;;2.75;61.40;101506.38;5055938;28;20290;-78
2022/01/13 09:49:19;;;;;;;15.97;12.87;;;;;;;3.07;59.92;101513.41;5055323;28;20665;-79
2022/01/13 09:51:54;;;;;;;13.83;11.20;;;;;;;3.37;58.50;101502.06;5055199;28;20273;-78
2022/01/13 09:54:27;;;;;;;14.83;11.43;;;;;;;3.53;56.97;101489.22;5074616;22;20630;-78
2022/01/13 09:57:14;;;;;;;16.27;12.27;;;;;;;3.70;56.71;101481.63;5084330;23;20276;-78
2022/01/13 09:59:57;;;;;;;13.73;10.80;;;;;;;3.86;56.97;101474.06;5094704;28;20237;-78
2022/01/13 10:02:29;;;;;;;14.67;10.63;;;;;;;4.04;55.87;101459.22;5100558;23;20317;-78
2022/01/13 10:04:59;;;;;;;13.60;10.30;;;;;;;4.25;56.00;101461.78;5082501;23;20232;-76
2022/01/13 10:07:41;;;;;;;11.43;8.97;;;;;;;4.55;55.58;101451.13;5062406;28;20192;-76
2022/01/13 10:10:32;;;;;;;5.80;4.83;;;;;;;4.82;52.98;101448.66;5092836;28;20236;-76
2022/01/13 10:13:40;;;;;;;5.20;3.67;;;;;;;5.09;51.21;101424.03;5181592;23;20212;-76
2022/01/13 10:16:23;;;;;;;6.33;4.23;;;;;;;5.48;52.60;101424.84;5072884;28;20197;-76
2022/01/13 10:18:59;;;;;;;10.90;7.37;;;;;;;5.56;50.81;101416.97;5096406;23;20224;-76
2022/01/13 10:21:26;;;;;;;3.00;2.00;;;;;;;5.78;49.74;101408.63;5075361;28;20212;-77
2022/01/13 10:24:24;;;;;;;1.97;1.53;;;;;;;6.10;50.25;101420.75;5077832;22;20237;-77
2022/01/13 10:27:19;;;;;;;3.03;1.63;;;;;;;6.25;49.25;101421.09;5068495;22;20236;-76
2022/01/13 10:30:12;;;;;;;1.70;1.47;;;;;;;6.42;49.46;101412.31;5051666;28;20218;-77
2022/01/13 10:32:40;;;;;;;1.80;1.50;;;;;;;6.61;48.38;101398.88;5053198;28;20175;-77
2022/01/13 10:35:22;;;;;;;2.20;1.80;;;;;;;6.72;47.85;101406.63;5043088;28;20229;-77
2022/01/13 10:37:56;;;;;;;2.30;1.60;;;;;;;6.94;48.00;101405.34;5046849;28;20237;-77
2022/01/13 10:40:29;;;;;;;1.00;0.90;;;;;;;7.08;47.30;101405.63;5044907;28;20303;-77
2022/01/13 10:45:55;;;;;;;0.87;0.80;;;;;;;7.26;46.69;101416.28;5036594;23;20218;-77
2022/01/13 10:48:34;;;;;;;1.10;0.90;;;;;;;7.28;45.84;101411.59;5075879;22;20236;-77
2022/01/13 10:51:07;;;;;;;1.10;1.00;;;;;;;7.12;45.92;101408.81;5081827;23;20521;-77
2022/01/13 10:53:51;;;;;;;1.67;0.90;;;;;;;7.18;45.80;101405.56;5101332;23;20200;-77
2022/01/13 10:56:21;;;;;;;1.00;0.90;;;;;;;7.23;45.76;101381.91;5080044;23;20232;-78
2022/01/13 10:58:54;;;;;;;1.20;1.00;;;;;;;7.20;45.34;101397.38;5099563;22;20169;-77
2022/01/13 11:01:37;;;;;;;0.87;0.73;;;;;;;7.36;45.76;101392.19;5061160;23;20297;-78
2022/01/13 11:04:32;;;;;;;0.67;0.67;;;;;;;7.46;45.52;101387.59;5052589;23;20292;-77
2022/01/13 11:07:35;;;;;;;0.83;0.80;;;;;;;7.50;45.58;101388.94;5070003;22;20234;-77
2022/01/13 11:10:09;;;;;;;1.17;1.07;;;;;;;7.56;45.34;101382.16;5081865;23;20177;-77
2022/01/13 11:12:55;;;;;;;0.70;0.70;;;;;;;7.66;44.81;101389.03;5079203;23;20209;-77
2022/01/13 11:15:27;;;;;;;0.80;0.80;;;;;;;7.63;44.22;101380.50;5082322;22;20213;-77
2022/01/13 11:18:17;;;;;;;0.50;0.50;;;;;;;7.46;44.30;101364.44;5079168;22;20241;-77
2022/01/13 11:21:21;;;;;;;0.80;0.60;;;;;;;7.43;45.18;101377.22;5054704;28;20194;-77
2022/01/13 11:24:10;;;;;;;0.87;0.70;;;;;;;7.34;44.85;101376.31;5073811;22;20240;-77
2022/01/13 11:27:00;;;;;;;0.87;0.60;;;;;;;7.39;44.31;101366.03;5055474;28;20226;-77
2022/01/13 11:29:30;;;;;;;0.87;0.70;;;;;;;7.34;44.66;101364.81;5053701;28;20177;-77
2022/01/13 11:32:01;;;;;;;1.23;0.73;;;;;;;7.32;45.24;101374.81;5060770;22;20226;-77
2022/01/13 11:34:55;;;;;;;0.80;0.60;;;;;;;7.29;44.78;101367.13;5081233;22;20259;-77
2022/01/13 11:37:29;;;;;;;0.90;0.60;;;;;;;7.32;44.60;101369.50;5165416;23;20233;-76
2022/01/13 11:40:26;;;;;;;0.53;0.50;;;;;;;7.18;45.26;101370.91;5090631;23;20237;-77
2022/01/13 11:43:45;;;;;;;1.37;0.70;;;;;;;7.14;45.34;101379.38;5062522;23;21277;-77
2022/01/13 11:46:55;;;;;;;0.47;0.40;;;;;;;7.22;44.54;101366.09;5082862;23;20233;-77
2022/01/13 11:52:52;;;;;;;0.60;0.50;;;;;;;7.30;44.69;101363.47;5031249;28;20195;-76
2022/01/13 11:59:10;;;;;;;0.47;0.40;;;;;;;7.57;44.99;101371.31;5177983;22;20223;-77
2022/01/13 12:01:43;;;;;;;4.57;4.17;;;;;;;7.57;44.23;101349.13;5073936;23;20233;-76
2022/01/13 12:04:25;;;;;;;0.90;0.70;;;;;;;7.87;44.02;101360.13;5077702;23;20280;-76
2022/01/13 12:07:01;;;;;;;0.60;0.50;;;;;;;7.84;44.47;101354.25;5151484;23;20228;-76
2022/01/13 12:10:05;;;;;;;1.97;1.40;;;;;;;7.93;44.28;101356.81;5176967;23;20293;-77
2022/01/13 12:12:39;;;;;;;1.30;1.00;;;;;;;8.04;44.31;101362.84;5054698;28;20574;-77
2022/01/13 12:15:26;;;;;;;1.03;0.90;;;;;;;7.92;44.22;101356.97;5055789;28;20194;-77
2022/01/13 12:18:05;;;;;;;0.80;0.80;;;;;;;7.99;44.01;101347.31;5055670;23;20251;-77
2022/01/13 12:21:19;;;;;;;0.90;0.70;;;;;;;8.06;43.69;101347.53;5047406;23;20233;-77
2022/01/13 12:24:19;;;;;;;0.60;0.60;;;;;;;8.18;43.51;101356.91;5070689;23;20292;-77
2022/01/13 12:27:23;;;;;;;0.60;0.60;;;;;;;8.29;43.56;101352.13;5066432;23;20186;-77
2022/01/13 12:30:49;;;;;;;13.57;8.10;;;;;;;8.62;43.44;101357.53;5069369;23;20229;-78
2022/01/13 12:33:31;;;;;;;0.97;0.60;;;;;;;8.80;42.42;101352.88;5054820;28;20229;-77
2022/01/13 12:36:33;;;;;;;4.00;2.30;;;;;;;8.83;42.24;101341.84;5063040;23;20190;-78
2022/01/13 12:39:25;;;;;;;0.80;0.80;;;;;;;8.91;42.16;101333.00;5083156;22;20197;-77
2022/01/13 12:47:38;;;;;;;1.00;0.63;;;;;;;9.03;41.85;101329.81;5167296;22;20209;-78
2022/01/13 12:50:41;;;;;;;1.17;1.00;;;;;;;9.24;41.58;101321.25;5084320;22;20197;-77
2022/01/13 12:54:01;;;;;;;0.80;0.80;;;;;;;9.27;41.22;101304.88;5097771;22;20248;-78
2022/01/13 12:57:02;;;;;;;0.60;0.60;;;;;;;9.23;41.27;101284.84;5081564;22;20213;-77
2022/01/13 13:00:40;;;;;;;0.93;0.70;;;;;;;9.09;41.95;101294.41;5043257;23;20221;-78
2022/01/13 13:04:24;;;;;;;0.80;0.80;;;;;;;9.17;41.53;101293.53;5104260;23;20212;-77
2022/01/13 13:07:11;;;;;;;1.10;0.80;;;;;;;9.23;41.91;101293.69;5070876;23;20209;-78
2022/01/13 13:09:44;;;;;;;0.90;0.73;;;;;;;9.32;41.82;101291.84;5033467;28;20213;-79
2022/01/13 13:13:03;;;;;;;0.70;0.67;;;;;;;9.45;41.28;101294.81;5012402;23;20195;-77
2022/01/13 13:16:18;;;;;;;0.80;0.60;;;;;;;9.38;41.08;101276.94;5169911;23;20236;-78
2022/01/13 13:19:14;;;;;;;1.00;0.77;;;;;;;9.37;40.93;101288.66;5072132;23;20178;-78